sensor_id;sensor_type;location;lat;lon;timestamp;P1;durP1;ratioP1;P2;durP2;ratioP2
53549;SDS011;67273;52.914;-0.982;2023-02-13T00:02:17;1.63;;;1.52;;
53549;SDS011;67273;52.914;-0.982;2023-02-13T00:04:43;3.15;;;1.92;;
53549;SDS011;67273;52.914;-0.982;2023-02-13T00:07:09;2.70;;;2.00;;
53549;SDS011;67273;52.914;-0.982;2023-02-13T00:09:38;2.63;;;2.00;;
53549;SDS011;67273;52.914;-0.982;2023-02-13T00:12:05;2.38;;;2.10;;
53549;SDS011;67273;52.914;-0.982;2023-02-13T00:14:33;2.47;;;1.77;;
53549;SDS011;67273;52.914;-0.982;2023-02-13T00:17:01;2.30;;;1.73;;
53549;SDS011;67273;52.914;-0.982;2023-02-13T00:19:27;2.25;;;1.90;;
53549;SDS011;67273;52.914;-0.982;2023-02-13T00:21:53;2.85;;;1.80;;
53549;SDS011;67273;52.914;-0.982;2023-02-13T00:24:19;2.95;;;1.90;;
53549;SDS011;67273;52.914;-0.982;2023-02-13T00:26:44;1.83;;;1.63;;
53549;SDS011;67273;52.914;-0.982;2023-02-13T00:29:10;2.40;;;1.90;;
53549;SDS011;67273;52.914;-0.982;2023-02-13T00:31:36;1.83;;;1.67;;
53549;SDS011;67273;52.914;-0.982;2023-02-13T00:34:04;3.03;;;1.90;;
53549;SDS011;67273;52.914;-0.982;2023-02-13T00:36:29;3.72;;;2.00;;
53549;SDS011;67273;52.914;-0.982;2023-02-13T00:38:55;2.88;;;1.77;;
53549;SDS011;67273;52.914;-0.982;2023-02-13T00:41:21;3.47;;;1.65;;
53549;SDS011;67273;52.914;-0.982;2023-02-13T00:43:48;3.38;;;2.00;;
53549;SDS011;67273;52.914;-0.982;2023-02-13T00:46:15;2.05;;;1.85;;
53549;SDS011;67273;52.914;-0.982;2023-02-13T00:48:41;2.03;;;1.80;;
53549;SDS011;67273;52.914;-0.982;2023-02-13T00:51:09;3.38;;;1.85;;
53549;SDS011;67273;52.914;-0.982;2023-02-13T00:53:36;2.42;;;1.73;;
53549;SDS011;67273;52.914;-0.982;2023-02-13T00:56:03;2.70;;;1.90;;
53549;SDS011;67273;52.914;-0.982;2023-02-13T00:58:30;2.38;;;1.90;;
53549;SDS011;67273;52.914;-0.982;2023-02-13T01:00:57;2.10;;;1.90;;
53549;SDS011;67273;52.914;-0.982;2023-02-13T01:03:23;2.88;;;1.90;;
53549;SDS011;67273;52.914;-0.982;2023-02-13T01:05:49;2.97;;;1.98;;
53549;SDS011;67273;52.914;-0.982;2023-02-13T01:08:16;2.63;;;1.90;;
53549;SDS011;67273;52.914;-0.982;2023-02-13T01:10:46;2.25;;;1.90;;
53549;SDS011;67273;52.914;-0.982;2023-02-13T01:13:13;2.10;;;1.90;;
53549;SDS011;67273;52.914;-0.982;2023-02-13T01:15:39;2.65;;;2.00;;
53549;SDS011;67273;52.914;-0.982;2023-02-13T01:18:05;2.00;;;1.80;;
53549;SDS011;67273;52.914;-0.982;2023-02-13T01:20:32;2.20;;;2.00;;
53549;SDS011;67273;52.914;-0.982;2023-02-13T01:22:58;2.67;;;1.80;;
53549;SDS011;67273;52.914;-0.982;2023-02-13T01:25:25;2.13;;;1.90;;
53549;SDS011;67273;52.914;-0.982;2023-02-13T01:27:52;2.55;;;2.17;;
53549;SDS011;67273;52.914;-0.982;2023-02-13T01:30:18;2.58;;;2.15;;
53549;SDS011;67273;52.914;-0.982;2023-02-13T01:32:44;2.00;;;1.80;;
53549;SDS011;67273;52.914;-0.982;2023-02-13T01:35:12;3.00;;;1.80;;
53549;SDS011;67273;52.914;-0.982;2023-02-13T01:37:39;2.45;;;1.98;;
53549;SDS011;67273;52.914;-0.982;2023-02-13T01:40:05;2.28;;;2.00;;
53549;SDS011;67273;52.914;-0.982;2023-02-13T01:42:36;3.03;;;2.20;;
53549;SDS011;67273;52.914;-0.982;2023-02-13T01:45:18;2.00;;;1.80;;
53549;SDS011;67273;52.914;-0.982;2023-02-13T01:47:48;2.10;;;1.90;;
53549;SDS011;67273;52.914;-0.982;2023-02-13T01:50:18;2.42;;;1.90;;
53549;SDS011;67273;52.914;-0.982;2023-02-13T01:52:51;2.22;;;2.00;;
53549;SDS011;67273;52.914;-0.982;2023-02-13T01:55:21;2.17;;;1.98;;
53549;SDS011;67273;52.914;-0.982;2023-02-13T01:57:52;2.13;;;1.90;;
53549;SDS011;67273;52.914;-0.982;2023-02-13T02:00:22;1.98;;;1.77;;
53549;SDS011;67273;52.914;-0.982;2023-02-13T02:02:49;2.10;;;1.90;;
53549;SDS011;67273;52.914;-0.982;2023-02-13T02:05:22;2.17;;;1.80;;
53549;SDS011;67273;52.914;-0.982;2023-02-13T02:07:52;2.17;;;1.98;;
53549;SDS011;67273;52.914;-0.982;2023-02-13T02:10:22;2.63;;;1.90;;
53549;SDS011;67273;52.914;-0.982;2023-02-13T02:12:51;2.53;;;2.03;;
53549;SDS011;67273;52.914;-0.982;2023-02-13T02:15:23;2.13;;;1.83;;
53549;SDS011;67273;52.914;-0.982;2023-02-13T02:17:49;2.03;;;1.80;;
53549;SDS011;67273;52.914;-0.982;2023-02-13T02:20:19;2.05;;;1.85;;
53549;SDS011;67273;52.914;-0.982;2023-02-13T02:23:19;2.40;;;2.20;;
53549;SDS011;67273;52.914;-0.982;2023-02-13T02:29:26;1.85;;;1.73;;
53549;SDS011;67273;52.914;-0.982;2023-02-13T02:32:15;2.10;;;1.90;;
53549;SDS011;67273;52.914;-0.982;2023-02-13T02:35:04;1.92;;;1.73;;
53549;SDS011;67273;52.914;-0.982;2023-02-13T02:37:47;2.00;;;1.80;;
53549;SDS011;67273;52.914;-0.982;2023-02-13T02:40:31;1.73;;;1.63;;
53549;SDS011;67273;52.914;-0.982;2023-02-13T02:43:18;2.15;;;1.77;;
53549;SDS011;67273;52.914;-0.982;2023-02-13T02:46:03;2.00;;;1.80;;
53549;SDS011;67273;52.914;-0.982;2023-02-13T02:48:43;2.08;;;1.88;;
53549;SDS011;67273;52.914;-0.982;2023-02-13T02:51:42;2.15;;;1.67;;
53549;SDS011;67273;52.914;-0.982;2023-02-13T02:54:19;2.22;;;1.90;;
53549;SDS011;67273;52.914;-0.982;2023-02-13T02:57:13;1.98;;;1.60;;
53549;SDS011;67273;52.914;-0.982;2023-02-13T02:59:53;2.58;;;1.60;;
53549;SDS011;67273;52.914;-0.982;2023-02-13T03:02:42;1.60;;;1.50;;
53549;SDS011;67273;52.914;-0.982;2023-02-13T03:05:30;2.00;;;1.80;;
53549;SDS011;67273;52.914;-0.982;2023-02-13T03:08:19;2.10;;;1.88;;
53549;SDS011;67273;52.914;-0.982;2023-02-13T03:11:06;1.85;;;1.70;;
53549;SDS011;67273;52.914;-0.982;2023-02-13T03:13:54;1.60;;;1.50;;
53549;SDS011;67273;52.914;-0.982;2023-02-13T03:16:24;1.80;;;1.70;;
53549;SDS011;67273;52.914;-0.982;2023-02-13T03:19:11;1.77;;;1.67;;
53549;SDS011;67273;52.914;-0.982;2023-02-13T03:22:01;2.35;;;1.73;;
53549;SDS011;67273;52.914;-0.982;2023-02-13T03:24:46;2.22;;;1.70;;
53549;SDS011;67273;52.914;-0.982;2023-02-13T03:27:19;1.70;;;1.60;;
53549;SDS011;67273;52.914;-0.982;2023-02-13T03:30:15;1.70;;;1.60;;
53549;SDS011;67273;52.914;-0.982;2023-02-13T03:32:49;1.73;;;1.60;;
53549;SDS011;67273;52.914;-0.982;2023-02-13T03:35:26;2.42;;;1.88;;
53549;SDS011;67273;52.914;-0.982;2023-02-13T03:38:19;1.50;;;1.40;;
53549;SDS011;67273;52.914;-0.982;2023-02-13T03:40:54;1.88;;;1.77;;
53549;SDS011;67273;52.914;-0.982;2023-02-13T03:43:49;1.85;;;1.70;;
53549;SDS011;67273;52.914;-0.982;2023-02-13T03:46:25;2.05;;;1.85;;
53549;SDS011;67273;52.914;-0.982;2023-02-13T03:48:53;2.05;;;1.80;;
53549;SDS011;67273;52.914;-0.982;2023-02-13T03:51:41;3.08;;;1.73;;
53549;SDS011;67273;52.914;-0.982;2023-02-13T03:54:14;1.83;;;1.70;;
53549;SDS011;67273;52.914;-0.982;2023-02-13T03:56:43;1.73;;;1.63;;
53549;SDS011;67273;52.914;-0.982;2023-02-13T03:59:31;2.00;;;1.77;;
53549;SDS011;67273;52.914;-0.982;2023-02-13T04:02:06;1.73;;;1.60;;
53549;SDS011;67273;52.914;-0.982;2023-02-13T04:04:38;2.55;;;2.00;;
53549;SDS011;67273;52.914;-0.982;2023-02-13T04:07:11;2.03;;;1.80;;
53549;SDS011;67273;52.914;-0.982;2023-02-13T04:09:55;1.80;;;1.70;;
53549;SDS011;67273;52.914;-0.982;2023-02-13T04:12:24;2.20;;;2.00;;
53549;SDS011;67273;52.914;-0.982;2023-02-13T04:14:57;2.10;;;1.90;;
53549;SDS011;67273;52.914;-0.982;2023-02-13T04:17:29;3.13;;;2.00;;
53549;SDS011;67273;52.914;-0.982;2023-02-13T04:19:58;1.95;;;1.73;;
53549;SDS011;67273;52.914;-0.982;2023-02-13T04:22:25;2.00;;;1.80;;
53549;SDS011;67273;52.914;-0.982;2023-02-13T04:24:50;1.90;;;1.70;;
53549;SDS011;67273;52.914;-0.982;2023-02-13T04:27:17;2.00;;;1.80;;
53549;SDS011;67273;52.914;-0.982;2023-02-13T04:29:43;2.15;;;1.95;;
53549;SDS011;67273;52.914;-0.982;2023-02-13T04:32:09;2.20;;;2.00;;
53549;SDS011;67273;52.914;-0.982;2023-02-13T04:34:35;2.88;;;2.08;;
53549;SDS011;67273;52.914;-0.982;2023-02-13T04:37:01;2.10;;;1.90;;
53549;SDS011;67273;52.914;-0.982;2023-02-13T04:39:27;1.98;;;1.77;;
53549;SDS011;67273;52.914;-0.982;2023-02-13T04:41:53;2.10;;;1.90;;
53549;SDS011;67273;52.914;-0.982;2023-02-13T04:44:20;2.33;;;1.73;;
53549;SDS011;67273;52.914;-0.982;2023-02-13T04:46:45;2.38;;;2.00;;
53549;SDS011;67273;52.914;-0.982;2023-02-13T04:49:11;2.08;;;1.88;;
53549;SDS011;67273;52.914;-0.982;2023-02-13T04:51:37;2.33;;;2.00;;
53549;SDS011;67273;52.914;-0.982;2023-02-13T04:54:03;2.45;;;2.00;;
53549;SDS011;67273;52.914;-0.982;2023-02-13T04:56:29;2.30;;;2.10;;
53549;SDS011;67273;52.914;-0.982;2023-02-13T04:58:54;2.35;;;1.95;;
53549;SDS011;67273;52.914;-0.982;2023-02-13T05:01:22;2.92;;;2.17;;
53549;SDS011;67273;52.914;-0.982;2023-02-13T05:03:47;2.13;;;1.92;;
53549;SDS011;67273;52.914;-0.982;2023-02-13T05:06:13;2.80;;;2.22;;
53549;SDS011;67273;52.914;-0.982;2023-02-13T05:08:39;2.05;;;1.83;;
53549;SDS011;67273;52.914;-0.982;2023-02-13T05:11:05;2.45;;;2.00;;
53549;SDS011;67273;52.914;-0.982;2023-02-13T05:13:31;2.65;;;2.03;;
53549;SDS011;67273;52.914;-0.982;2023-02-13T05:15:57;2.08;;;1.88;;
53549;SDS011;67273;52.914;-0.982;2023-02-13T05:18:24;2.20;;;1.95;;
53549;SDS011;67273;52.914;-0.982;2023-02-13T05:20:50;2.95;;;2.20;;
53549;SDS011;67273;52.914;-0.982;2023-02-13T05:23:34;2.28;;;2.08;;
53549;SDS011;67273;52.914;-0.982;2023-02-13T05:26:00;2.20;;;2.00;;
53549;SDS011;67273;52.914;-0.982;2023-02-13T05:28:26;2.53;;;1.95;;
53549;SDS011;67273;52.914;-0.982;2023-02-13T05:31:10;2.35;;;2.15;;
53549;SDS011;67273;52.914;-0.982;2023-02-13T05:33:38;2.28;;;2.00;;
53549;SDS011;67273;52.914;-0.982;2023-02-13T05:36:04;3.05;;;2.20;;
53549;SDS011;67273;52.914;-0.982;2023-02-13T05:38:30;2.67;;;2.25;;
53549;SDS011;67273;52.914;-0.982;2023-02-13T05:40:57;2.92;;;2.30;;
53549;SDS011;67273;52.914;-0.982;2023-02-13T05:43:23;2.85;;;2.30;;
53549;SDS011;67273;52.914;-0.982;2023-02-13T05:45:49;2.65;;;2.25;;
53549;SDS011;67273;52.914;-0.982;2023-02-13T05:48:16;3.28;;;2.45;;
53549;SDS011;67273;52.914;-0.982;2023-02-13T05:50:43;2.38;;;2.17;;
53549;SDS011;67273;52.914;-0.982;2023-02-13T05:53:10;3.25;;;2.55;;
53549;SDS011;67273;52.914;-0.982;2023-02-13T05:55:37;2.47;;;2.25;;
53549;SDS011;67273;52.914;-0.982;2023-02-13T05:58:03;2.53;;;2.28;;
53549;SDS011;67273;52.914;-0.982;2023-02-13T06:00:29;2.50;;;2.30;;
53549;SDS011;67273;52.914;-0.982;2023-02-13T06:02:54;3.08;;;2.55;;
53549;SDS011;67273;52.914;-0.982;2023-02-13T06:05:20;2.63;;;2.10;;
53549;SDS011;67273;52.914;-0.982;2023-02-13T06:07:47;2.50;;;2.30;;
53549;SDS011;67273;52.914;-0.982;2023-02-13T06:10:13;2.58;;;2.38;;
53549;SDS011;67273;52.914;-0.982;2023-02-13T06:12:38;2.53;;;2.33;;
53549;SDS011;67273;52.914;-0.982;2023-02-13T06:15:05;3.22;;;2.40;;
53549;SDS011;67273;52.914;-0.982;2023-02-13T06:17:31;3.22;;;2.55;;
53549;SDS011;67273;52.914;-0.982;2023-02-13T06:19:57;2.67;;;2.47;;
53549;SDS011;67273;52.914;-0.982;2023-02-13T06:22:22;3.58;;;2.60;;
53549;SDS011;67273;52.914;-0.982;2023-02-13T06:24:49;2.80;;;2.47;;
53549;SDS011;67273;52.914;-0.982;2023-02-13T06:27:15;2.30;;;2.10;;
53549;SDS011;67273;52.914;-0.982;2023-02-13T06:29:41;2.40;;;2.03;;
53549;SDS011;67273;52.914;-0.982;2023-02-13T06:32:06;2.30;;;2.10;;
53549;SDS011;67273;52.914;-0.982;2023-02-13T06:34:32;3.03;;;2.47;;
53549;SDS011;67273;52.914;-0.982;2023-02-13T06:36:58;2.80;;;2.35;;
53549;SDS011;67273;52.914;-0.982;2023-02-13T06:39:24;2.72;;;2.40;;
53549;SDS011;67273;52.914;-0.982;2023-02-13T06:41:51;3.20;;;2.60;;
53549;SDS011;67273;52.914;-0.982;2023-02-13T06:44:17;2.63;;;2.35;;
53549;SDS011;67273;52.914;-0.982;2023-02-13T06:46:42;3.60;;;2.80;;
53549;SDS011;67273;52.914;-0.982;2023-02-13T06:49:08;2.83;;;2.50;;
53549;SDS011;67273;52.914;-0.982;2023-02-13T06:51:34;3.63;;;2.83;;
53549;SDS011;67273;52.914;-0.982;2023-02-13T06:53:59;2.95;;;2.63;;
53549;SDS011;67273;52.914;-0.982;2023-02-13T06:56:25;3.53;;;2.90;;
53549;SDS011;67273;52.914;-0.982;2023-02-13T06:58:52;3.78;;;3.10;;
53549;SDS011;67273;52.914;-0.982;2023-02-13T07:01:18;4.25;;;3.28;;
53549;SDS011;67273;52.914;-0.982;2023-02-13T07:03:43;4.15;;;3.15;;
53549;SDS011;67273;52.914;-0.982;2023-02-13T07:06:10;4.95;;;3.50;;
53549;SDS011;67273;52.914;-0.982;2023-02-13T07:08:41;3.38;;;2.88;;
53549;SDS011;67273;52.914;-0.982;2023-02-13T07:11:07;4.45;;;3.30;;
53549;SDS011;67273;52.914;-0.982;2023-02-13T07:13:33;4.75;;;3.10;;
53549;SDS011;67273;52.914;-0.982;2023-02-13T07:16:00;4.32;;;3.70;;
53549;SDS011;67273;52.914;-0.982;2023-02-13T07:18:26;4.00;;;3.38;;
53549;SDS011;67273;52.914;-0.982;2023-02-13T07:20:52;4.90;;;3.50;;
53549;SDS011;67273;52.914;-0.982;2023-02-13T07:23:17;3.70;;;3.28;;
53549;SDS011;67273;52.914;-0.982;2023-02-13T07:25:43;5.03;;;3.60;;
53549;SDS011;67273;52.914;-0.982;2023-02-13T07:28:09;4.07;;;3.13;;
53549;SDS011;67273;52.914;-0.982;2023-02-13T07:30:34;4.72;;;3.55;;
53549;SDS011;67273;52.914;-0.982;2023-02-13T07:33:02;4.60;;;3.70;;
53549;SDS011;67273;52.914;-0.982;2023-02-13T07:35:29;4.68;;;3.60;;
53549;SDS011;67273;52.914;-0.982;2023-02-13T07:37:55;3.70;;;3.00;;
53549;SDS011;67273;52.914;-0.982;2023-02-13T07:40:20;3.97;;;3.45;;
53549;SDS011;67273;52.914;-0.982;2023-02-13T07:42:46;4.18;;;3.65;;
53549;SDS011;67273;52.914;-0.982;2023-02-13T07:45:12;5.60;;;3.22;;
53549;SDS011;67273;52.914;-0.982;2023-02-13T07:47:40;9.00;;;3.60;;
53549;SDS011;67273;52.914;-0.982;2023-02-13T07:50:08;5.22;;;3.38;;
53549;SDS011;67273;52.914;-0.982;2023-02-13T07:52:34;5.82;;;3.30;;
53549;SDS011;67273;52.914;-0.982;2023-02-13T07:55:02;6.18;;;3.47;;
53549;SDS011;67273;52.914;-0.982;2023-02-13T07:57:28;8.15;;;3.53;;
53549;SDS011;67273;52.914;-0.982;2023-02-13T07:59:55;7.55;;;4.07;;
53549;SDS011;67273;52.914;-0.982;2023-02-13T08:02:21;10.38;;;4.55;;
53549;SDS011;67273;52.914;-0.982;2023-02-13T08:04:47;18.92;;;5.22;;
53549;SDS011;67273;52.914;-0.982;2023-02-13T08:07:14;14.30;;;5.32;;
53549;SDS011;67273;52.914;-0.982;2023-02-13T08:09:42;13.85;;;4.65;;
53549;SDS011;67273;52.914;-0.982;2023-02-13T08:12:28;15.25;;;5.00;;
53549;SDS011;67273;52.914;-0.982;2023-02-13T08:14:53;15.60;;;6.07;;
53549;SDS011;67273;52.914;-0.982;2023-02-13T08:17:19;13.77;;;6.45;;
53549;SDS011;67273;52.914;-0.982;2023-02-13T08:19:45;12.13;;;6.15;;
53549;SDS011;67273;52.914;-0.982;2023-02-13T08:22:11;13.75;;;6.25;;
53549;SDS011;67273;52.914;-0.982;2023-02-13T08:24:38;16.73;;;6.65;;
53549;SDS011;67273;52.914;-0.982;2023-02-13T08:27:03;16.13;;;6.50;;
53549;SDS011;67273;52.914;-0.982;2023-02-13T08:29:29;15.65;;;6.82;;
53549;SDS011;67273;52.914;-0.982;2023-02-13T08:31:55;15.93;;;6.35;;
53549;SDS011;67273;52.914;-0.982;2023-02-13T08:34:20;14.98;;;6.45;;
53549;SDS011;67273;52.914;-0.982;2023-02-13T08:36:46;12.93;;;6.18;;
53549;SDS011;67273;52.914;-0.982;2023-02-13T08:39:12;15.57;;;6.53;;
53549;SDS011;67273;52.914;-0.982;2023-02-13T08:41:39;16.17;;;6.95;;
53549;SDS011;67273;52.914;-0.982;2023-02-13T08:44:06;14.65;;;6.53;;
53549;SDS011;67273;52.914;-0.982;2023-02-13T08:46:32;14.95;;;6.05;;
53549;SDS011;67273;52.914;-0.982;2023-02-13T08:48:57;12.27;;;6.03;;
53549;SDS011;67273;52.914;-0.982;2023-02-13T08:51:23;10.63;;;5.80;;
53549;SDS011;67273;52.914;-0.982;2023-02-13T08:53:49;12.63;;;5.70;;
53549;SDS011;67273;52.914;-0.982;2023-02-13T08:56:14;11.40;;;5.65;;
53549;SDS011;67273;52.914;-0.982;2023-02-13T08:58:42;12.05;;;5.45;;
53549;SDS011;67273;52.914;-0.982;2023-02-13T09:01:08;10.88;;;5.35;;
53549;SDS011;67273;52.914;-0.982;2023-02-13T09:03:34;7.88;;;5.18;;
53549;SDS011;67273;52.914;-0.982;2023-02-13T09:06:00;11.32;;;5.45;;
53549;SDS011;67273;52.914;-0.982;2023-02-13T09:08:26;12.93;;;5.88;;
53549;SDS011;67273;52.914;-0.982;2023-02-13T09:10:54;11.57;;;5.55;;
53549;SDS011;67273;52.914;-0.982;2023-02-13T09:13:22;12.35;;;5.45;;
53549;SDS011;67273;52.914;-0.982;2023-02-13T09:15:49;12.95;;;5.43;;
53549;SDS011;67273;52.914;-0.982;2023-02-13T09:18:14;12.07;;;5.72;;
53549;SDS011;67273;52.914;-0.982;2023-02-13T09:20:40;8.02;;;5.28;;
53549;SDS011;67273;52.914;-0.982;2023-02-13T09:23:06;12.20;;;5.05;;
53549;SDS011;67273;52.914;-0.982;2023-02-13T09:25:32;12.32;;;5.63;;
53549;SDS011;67273;52.914;-0.982;2023-02-13T09:27:58;10.70;;;5.50;;
53549;SDS011;67273;52.914;-0.982;2023-02-13T09:30:24;13.32;;;6.05;;
53549;SDS011;67273;52.914;-0.982;2023-02-13T09:32:51;11.73;;;5.72;;
53549;SDS011;67273;52.914;-0.982;2023-02-13T09:35:18;12.10;;;5.35;;
53549;SDS011;67273;52.914;-0.982;2023-02-13T09:37:44;11.95;;;5.30;;
53549;SDS011;67273;52.914;-0.982;2023-02-13T09:40:15;9.75;;;5.07;;
53549;SDS011;67273;52.914;-0.982;2023-02-13T09:42:44;10.60;;;5.07;;
53549;SDS011;67273;52.914;-0.982;2023-02-13T09:45:12;10.98;;;5.25;;
53549;SDS011;67273;52.914;-0.982;2023-02-13T09:47:40;7.05;;;4.60;;
53549;SDS011;67273;52.914;-0.982;2023-02-13T09:50:11;15.50;;;4.95;;
53549;SDS011;67273;52.914;-0.982;2023-02-13T09:52:41;10.35;;;5.10;;
53549;SDS011;67273;52.914;-0.982;2023-02-13T09:55:15;12.10;;;5.13;;
53549;SDS011;67273;52.914;-0.982;2023-02-13T10:00:12;6.72;;;4.93;;
53549;SDS011;67273;52.914;-0.982;2023-02-13T10:02:52;9.82;;;4.53;;
53549;SDS011;67273;52.914;-0.982;2023-02-13T10:05:38;6.70;;;4.82;;
53549;SDS011;67273;52.914;-0.982;2023-02-13T10:08:12;10.77;;;4.85;;
53549;SDS011;67273;52.914;-0.982;2023-02-13T10:10:50;8.00;;;4.82;;
53549;SDS011;67273;52.914;-0.982;2023-02-13T10:13:28;9.20;;;4.55;;
53549;SDS011;67273;52.914;-0.982;2023-02-13T10:16:08;9.50;;;5.05;;
53549;SDS011;67273;52.914;-0.982;2023-02-13T10:18:40;7.07;;;4.28;;
53549;SDS011;67273;52.914;-0.982;2023-02-13T10:21:12;11.85;;;5.15;;
53549;SDS011;67273;52.914;-0.982;2023-02-13T10:23:39;7.68;;;4.55;;
53549;SDS011;67273;52.914;-0.982;2023-02-13T10:26:10;8.55;;;4.85;;
53549;SDS011;67273;52.914;-0.982;2023-02-13T10:28:43;10.35;;;4.53;;
53549;SDS011;67273;52.914;-0.982;2023-02-13T10:31:33;8.18;;;4.47;;
53549;SDS011;67273;52.914;-0.982;2023-02-13T10:34:01;13.65;;;4.38;;
53549;SDS011;67273;52.914;-0.982;2023-02-13T10:36:32;8.02;;;4.85;;
53549;SDS011;67273;52.914;-0.982;2023-02-13T10:39:05;8.95;;;4.60;;
53549;SDS011;67273;52.914;-0.982;2023-02-13T10:41:47;7.25;;;4.05;;
53549;SDS011;67273;52.914;-0.982;2023-02-13T10:44:28;9.52;;;4.72;;
53549;SDS011;67273;52.914;-0.982;2023-02-13T10:47:08;6.88;;;4.30;;
53549;SDS011;67273;52.914;-0.982;2023-02-13T10:49:45;10.80;;;4.50;;
53549;SDS011;67273;52.914;-0.982;2023-02-13T10:52:31;8.27;;;3.83;;
53549;SDS011;67273;52.914;-0.982;2023-02-13T10:55:14;7.63;;;4.45;;
53549;SDS011;67273;52.914;-0.982;2023-02-13T10:57:54;9.45;;;4.20;;
53549;SDS011;67273;52.914;-0.982;2023-02-13T11:00:30;16.10;;;4.35;;
53549;SDS011;67273;52.914;-0.982;2023-02-13T11:03:00;10.65;;;4.65;;
53549;SDS011;67273;52.914;-0.982;2023-02-13T11:05:29;7.10;;;4.10;;
53549;SDS011;67273;52.914;-0.982;2023-02-13T11:07:57;7.88;;;4.97;;
53549;SDS011;67273;52.914;-0.982;2023-02-13T11:10:25;7.78;;;4.75;;
53549;SDS011;67273;52.914;-0.982;2023-02-13T11:12:52;7.72;;;4.95;;
53549;SDS011;67273;52.914;-0.982;2023-02-13T11:15:22;7.55;;;4.85;;
53549;SDS011;67273;52.914;-0.982;2023-02-13T11:17:50;9.40;;;7.00;;
53549;SDS011;67273;52.914;-0.982;2023-02-13T11:23:16;8.88;;;5.30;;
53549;SDS011;67273;52.914;-0.982;2023-02-13T11:25:58;8.60;;;5.38;;
53549;SDS011;67273;52.914;-0.982;2023-02-13T11:28:26;7.80;;;5.18;;
53549;SDS011;67273;52.914;-0.982;2023-02-13T11:31:01;6.07;;;4.93;;
53549;SDS011;67273;52.914;-0.982;2023-02-13T11:33:35;8.30;;;4.30;;
53549;SDS011;67273;52.914;-0.982;2023-02-13T11:36:03;9.98;;;4.53;;
53549;SDS011;67273;52.914;-0.982;2023-02-13T11:38:31;7.07;;;4.43;;
53549;SDS011;67273;52.914;-0.982;2023-02-13T11:41:02;7.57;;;4.47;;
53549;SDS011;67273;52.914;-0.982;2023-02-13T11:43:32;18.13;;;4.85;;
53549;SDS011;67273;52.914;-0.982;2023-02-13T11:46:01;7.97;;;4.07;;
53549;SDS011;67273;52.914;-0.982;2023-02-13T11:48:29;5.95;;;4.25;;
53549;SDS011;67273;52.914;-0.982;2023-02-13T11:50:55;10.20;;;4.15;;
53549;SDS011;67273;52.914;-0.982;2023-02-13T11:53:23;6.68;;;4.15;;
53549;SDS011;67273;52.914;-0.982;2023-02-13T11:56:03;7.82;;;4.32;;
53549;SDS011;67273;52.914;-0.982;2023-02-13T11:58:32;9.13;;;4.35;;
53549;SDS011;67273;52.914;-0.982;2023-02-13T12:01:22;8.38;;;4.45;;
53549;SDS011;67273;52.914;-0.982;2023-02-13T12:04:03;7.72;;;3.92;;
53549;SDS011;67273;52.914;-0.982;2023-02-13T12:06:31;8.48;;;4.28;;
53549;SDS011;67273;52.914;-0.982;2023-02-13T12:09:04;7.93;;;4.22;;
53549;SDS011;67273;52.914;-0.982;2023-02-13T12:11:39;10.05;;;4.07;;
53549;SDS011;67273;52.914;-0.982;2023-02-13T12:14:10;13.55;;;6.07;;
53549;SDS011;67273;52.914;-0.982;2023-02-13T12:16:39;10.68;;;7.13;;
53549;SDS011;67273;52.914;-0.982;2023-02-13T12:19:09;14.07;;;9.93;;
53549;SDS011;67273;52.914;-0.982;2023-02-13T12:21:43;11.98;;;7.68;;
53549;SDS011;67273;52.914;-0.982;2023-02-13T12:24:29;9.13;;;7.30;;
53549;SDS011;67273;52.914;-0.982;2023-02-13T12:27:08;10.18;;;6.60;;
53549;SDS011;67273;52.914;-0.982;2023-02-13T12:29:51;9.18;;;6.13;;
53549;SDS011;67273;52.914;-0.982;2023-02-13T12:32:36;8.18;;;5.70;;
53549;SDS011;67273;52.914;-0.982;2023-02-13T12:38:10;18.02;;;5.63;;
53549;SDS011;67273;52.914;-0.982;2023-02-13T12:40:56;8.18;;;5.10;;
53549;SDS011;67273;52.914;-0.982;2023-02-13T12:46:41;9.27;;;4.72;;
53549;SDS011;67273;52.914;-0.982;2023-02-13T12:49:23;7.10;;;4.47;;
53549;SDS011;67273;52.914;-0.982;2023-02-13T12:52:10;7.47;;;4.30;;
53549;SDS011;67273;52.914;-0.982;2023-02-13T12:54:49;10.57;;;4.20;;
53549;SDS011;67273;52.914;-0.982;2023-02-13T12:57:27;7.65;;;4.30;;
53549;SDS011;67273;52.914;-0.982;2023-02-13T13:00:13;6.90;;;4.13;;
53549;SDS011;67273;52.914;-0.982;2023-02-13T13:02:52;8.35;;;3.90;;
53549;SDS011;67273;52.914;-0.982;2023-02-13T13:05:31;7.60;;;3.60;;
53549;SDS011;67273;52.914;-0.982;2023-02-13T13:08:17;7.82;;;3.78;;
53549;SDS011;67273;52.914;-0.982;2023-02-13T13:10:56;6.95;;;4.03;;
53549;SDS011;67273;52.914;-0.982;2023-02-13T13:13:37;7.88;;;4.22;;
53549;SDS011;67273;52.914;-0.982;2023-02-13T13:16:12;5.40;;;3.58;;
53549;SDS011;67273;52.914;-0.982;2023-02-13T13:18:48;7.88;;;3.90;;
53549;SDS011;67273;52.914;-0.982;2023-02-13T13:21:30;6.30;;;3.50;;
53549;SDS011;67273;52.914;-0.982;2023-02-13T13:24:04;5.40;;;3.45;;
53549;SDS011;67273;52.914;-0.982;2023-02-13T13:26:41;6.47;;;3.63;;
53549;SDS011;67273;52.914;-0.982;2023-02-13T13:29:10;5.25;;;3.33;;
53549;SDS011;67273;52.914;-0.982;2023-02-13T13:31:41;6.45;;;3.22;;
53549;SDS011;67273;52.914;-0.982;2023-02-13T13:34:15;4.78;;;3.13;;
53549;SDS011;67273;52.914;-0.982;2023-02-13T13:36:46;8.50;;;3.45;;
53549;SDS011;67273;52.914;-0.982;2023-02-13T13:39:18;6.35;;;3.30;;
53549;SDS011;67273;52.914;-0.982;2023-02-13T13:41:55;3.85;;;3.00;;
53549;SDS011;67273;52.914;-0.982;2023-02-13T13:44:36;6.85;;;3.40;;
53549;SDS011;67273;52.914;-0.982;2023-02-13T13:47:15;5.65;;;3.22;;
53549;SDS011;67273;52.914;-0.982;2023-02-13T13:49:50;4.97;;;3.30;;
53549;SDS011;67273;52.914;-0.982;2023-02-13T13:52:20;6.57;;;3.83;;
53549;SDS011;67273;52.914;-0.982;2023-02-13T13:54:47;4.65;;;3.83;;
53549;SDS011;67273;52.914;-0.982;2023-02-13T13:57:17;8.10;;;3.58;;
53549;SDS011;67273;52.914;-0.982;2023-02-13T13:59:56;6.75;;;3.90;;
53549;SDS011;67273;52.914;-0.982;2023-02-13T14:02:36;5.05;;;3.60;;
53549;SDS011;67273;52.914;-0.982;2023-02-13T14:05:16;6.75;;;3.90;;
53549;SDS011;67273;52.914;-0.982;2023-02-13T14:07:45;4.47;;;3.25;;
53549;SDS011;67273;52.914;-0.982;2023-02-13T14:13:33;5.22;;;3.42;;
53549;SDS011;67273;52.914;-0.982;2023-02-13T14:16:00;6.85;;;3.75;;
53549;SDS011;67273;52.914;-0.982;2023-02-13T14:18:26;6.50;;;3.90;;
53549;SDS011;67273;52.914;-0.982;2023-02-13T14:20:55;5.18;;;3.72;;
53549;SDS011;67273;52.914;-0.982;2023-02-13T14:23:26;6.68;;;3.95;;
53549;SDS011;67273;52.914;-0.982;2023-02-13T14:26:11;9.20;;;3.85;;
53549;SDS011;67273;52.914;-0.982;2023-02-13T14:28:58;6.53;;;4.10;;
53549;SDS011;67273;52.914;-0.982;2023-02-13T14:31:41;6.43;;;3.90;;
53549;SDS011;67273;52.914;-0.982;2023-02-13T14:34:17;7.32;;;4.05;;
53549;SDS011;67273;52.914;-0.982;2023-02-13T14:37:11;6.82;;;4.13;;
53549;SDS011;67273;52.914;-0.982;2023-02-13T14:42:50;5.57;;;4.00;;
53549;SDS011;67273;52.914;-0.982;2023-02-13T14:45:18;5.65;;;4.18;;
53549;SDS011;67273;52.914;-0.982;2023-02-13T14:47:48;4.55;;;3.80;;
53549;SDS011;67273;52.914;-0.982;2023-02-13T14:50:21;5.30;;;4.22;;
53549;SDS011;67273;52.914;-0.982;2023-02-13T14:52:53;5.65;;;4.30;;
53549;SDS011;67273;52.914;-0.982;2023-02-13T14:55:24;7.63;;;4.10;;
53549;SDS011;67273;52.914;-0.982;2023-02-13T14:57:57;5.43;;;3.90;;
53549;SDS011;67273;52.914;-0.982;2023-02-13T15:00:31;5.57;;;4.20;;
53549;SDS011;67273;52.914;-0.982;2023-02-13T15:03:04;6.57;;;4.20;;
53549;SDS011;67273;52.914;-0.982;2023-02-13T15:05:48;6.10;;;4.22;;
53549;SDS011;67273;52.914;-0.982;2023-02-13T15:08:17;6.53;;;4.28;;
53549;SDS011;67273;52.914;-0.982;2023-02-13T15:10:45;5.65;;;4.15;;
53549;SDS011;67273;52.914;-0.982;2023-02-13T15:13:14;6.93;;;4.03;;
53549;SDS011;67273;52.914;-0.982;2023-02-13T15:15:40;6.20;;;3.58;;
53549;SDS011;67273;52.914;-0.982;2023-02-13T15:18:07;7.00;;;4.10;;
53549;SDS011;67273;52.914;-0.982;2023-02-13T15:20:36;5.70;;;4.38;;